sensor_id;sensor_type;location;lat;lon;timestamp;P1;durP1;ratioP1;P2;durP2;ratioP2
55350;SDS011;62194;49.480;10.986;2023-04-16T00:00:02;7.55;;;6.55;;
55350;SDS011;62194;49.480;10.986;2023-04-16T00:00:08;7.50;;;6.70;;
55350;SDS011;62194;49.480;10.986;2023-04-16T00:00:14;7.55;;;6.75;;
55350;SDS011;62194;49.480;10.986;2023-04-16T00:00:19;7.70;;;6.90;;
55350;SDS011;62194;49.480;10.986;2023-04-16T00:00:25;7.87;;;7.07;;
55350;SDS011;62194;49.480;10.986;2023-04-16T00:00:32;7.95;;;7.15;;
55350;SDS011;62194;49.480;10.986;2023-04-16T00:00:37;7.87;;;7.07;;
55350;SDS011;62194;49.480;10.986;2023-04-16T00:00:43;7.63;;;6.82;;
55350;SDS011;62194;49.480;10.986;2023-04-16T00:00:48;7.45;;;6.72;;
55350;SDS011;62194;49.480;10.986;2023-04-16T00:00:54;7.33;;;6.60;;
55350;SDS011;62194;49.480;10.986;2023-04-16T00:00:59;7.50;;;6.63;;
55350;SDS011;62194;49.480;10.986;2023-04-16T00:01:05;7.28;;;6.40;;
55350;SDS011;62194;49.480;10.986;2023-04-16T00:01:10;7.53;;;6.60;;
55350;SDS011;62194;49.480;10.986;2023-04-16T00:01:16;7.53;;;6.57;;
55350;SDS011;62194;49.480;10.986;2023-04-16T00:01:21;7.30;;;6.50;;
55350;SDS011;62194;49.480;10.986;2023-04-16T00:01:26;7.25;;;6.47;;
55350;SDS011;62194;49.480;10.986;2023-04-16T00:01:32;7.33;;;6.57;;
55350;SDS011;62194;49.480;10.986;2023-04-16T00:01:37;7.47;;;6.67;;
55350;SDS011;62194;49.480;10.986;2023-04-16T00:01:42;7.28;;;6.57;;
55350;SDS011;62194;49.480;10.986;2023-04-16T00:01:47;7.20;;;6.50;;
55350;SDS011;62194;49.480;10.986;2023-04-16T00:01:53;7.20;;;6.50;;
55350;SDS011;62194;49.480;10.986;2023-04-16T00:01:58;7.07;;;6.38;;
55350;SDS011;62194;49.480;10.986;2023-04-16T00:02:03;6.90;;;6.20;;
55350;SDS011;62194;49.480;10.986;2023-04-16T00:02:09;6.83;;;6.13;;
55350;SDS011;62194;49.480;10.986;2023-04-16T00:02:15;7.32;;;6.47;;
55350;SDS011;62194;49.480;10.986;2023-04-16T00:02:20;7.53;;;6.50;;
55350;SDS011;62194;49.480;10.986;2023-04-16T00:02:25;7.68;;;6.68;;
55350;SDS011;62194;49.480;10.986;2023-04-16T00:02:31;7.80;;;6.80;;
55350;SDS011;62194;49.480;10.986;2023-04-16T00:02:37;7.90;;;7.07;;
55350;SDS011;62194;49.480;10.986;2023-04-16T00:02:42;7.85;;;6.97;;
55350;SDS011;62194;49.480;10.986;2023-04-16T00:02:48;7.73;;;6.93;;
55350;SDS011;62194;49.480;10.986;2023-04-16T00:02:53;7.70;;;6.93;;
55350;SDS011;62194;49.480;10.986;2023-04-16T00:02:58;7.47;;;6.75;;
55350;SDS011;62194;49.480;10.986;2023-04-16T00:03:04;7.30;;;6.60;;
55350;SDS011;62194;49.480;10.986;2023-04-16T00:03:09;7.45;;;6.75;;
55350;SDS011;62194;49.480;10.986;2023-04-16T00:03:15;7.50;;;6.80;;
55350;SDS011;62194;49.480;10.986;2023-04-16T00:03:20;7.73;;;6.97;;
55350;SDS011;62194;49.480;10.986;2023-04-16T00:03:25;7.85;;;7.05;;
55350;SDS011;62194;49.480;10.986;2023-04-16T00:03:30;7.93;;;7.07;;
55350;SDS011;62194;49.480;10.986;2023-04-16T00:03:36;7.85;;;6.82;;
55350;SDS011;62194;49.480;10.986;2023-04-16T00:03:41;7.57;;;6.57;;
55350;SDS011;62194;49.480;10.986;2023-04-16T00:03:47;7.57;;;6.53;;
55350;SDS011;62194;49.480;10.986;2023-04-16T00:03:52;7.47;;;6.50;;
55350;SDS011;62194;49.480;10.986;2023-04-16T00:03:58;7.33;;;6.47;;
55350;SDS011;62194;49.480;10.986;2023-04-16T00:04:03;7.15;;;6.45;;
55350;SDS011;62194;49.480;10.986;2023-04-16T00:04:09;7.13;;;6.43;;
55350;SDS011;62194;49.480;10.986;2023-04-16T00:04:14;7.20;;;6.47;;
55350;SDS011;62194;49.480;10.986;2023-04-16T00:04:20;7.10;;;6.40;;
55350;SDS011;62194;49.480;10.986;2023-04-16T00:04:25;7.20;;;6.50;;
55350;SDS011;62194;49.480;10.986;2023-04-16T00:04:31;7.32;;;6.63;;
55350;SDS011;62194;49.480;10.986;2023-04-16T00:04:36;7.53;;;6.80;;
55350;SDS011;62194;49.480;10.986;2023-04-16T00:04:41;7.80;;;7.00;;
55350;SDS011;62194;49.480;10.986;2023-04-16T00:04:47;7.80;;;6.97;;
55350;SDS011;62194;49.480;10.986;2023-04-16T00:04:52;7.90;;;7.05;;
55350;SDS011;62194;49.480;10.986;2023-04-16T00:05:00;7.68;;;6.88;;
55350;SDS011;62194;49.480;10.986;2023-04-16T00:05:05;7.67;;;6.87;;
55350;SDS011;62194;49.480;10.986;2023-04-16T00:05:12;7.43;;;6.65;;
55350;SDS011;62194;49.480;10.986;2023-04-16T00:05:18;7.26;;;6.56;;
55350;SDS011;62194;49.480;10.986;2023-04-16T00:05:23;7.00;;;6.30;;
55350;SDS011;62194;49.480;10.986;2023-04-16T00:05:29;7.05;;;6.35;;
55350;SDS011;62194;49.480;10.986;2023-04-16T00:05:34;7.27;;;6.47;;
55350;SDS011;62194;49.480;10.986;2023-04-16T00:05:40;7.30;;;6.50;;
55350;SDS011;62194;49.480;10.986;2023-04-16T00:05:45;7.22;;;6.45;;
55350;SDS011;62194;49.480;10.986;2023-04-16T00:05:51;7.28;;;6.40;;
55350;SDS011;62194;49.480;10.986;2023-04-16T00:05:59;8.13;;;6.77;;
55350;SDS011;62194;49.480;10.986;2023-04-16T00:06:04;7.78;;;6.68;;
55350;SDS011;62194;49.480;10.986;2023-04-16T00:06:10;7.93;;;6.57;;
55350;SDS011;62194;49.480;10.986;2023-04-16T00:06:16;7.93;;;6.60;;
55350;SDS011;62194;49.480;10.986;2023-04-16T00:06:21;7.97;;;6.70;;
55350;SDS011;62194;49.480;10.986;2023-04-16T00:06:27;7.30;;;6.47;;
55350;SDS011;62194;49.480;10.986;2023-04-16T00:06:32;7.50;;;6.50;;
55350;SDS011;62194;49.480;10.986;2023-04-16T00:06:38;7.78;;;6.70;;
55350;SDS011;62194;49.480;10.986;2023-04-16T00:06:43;8.73;;;6.80;;
55350;SDS011;62194;49.480;10.986;2023-04-16T00:06:48;8.57;;;6.70;;
55350;SDS011;62194;49.480;10.986;2023-04-16T00:06:53;8.60;;;6.70;;
55350;SDS011;62194;49.480;10.986;2023-04-16T00:06:59;8.50;;;6.87;;
55350;SDS011;62194;49.480;10.986;2023-04-16T00:07:04;8.70;;;7.03;;
55350;SDS011;62194;49.480;10.986;2023-04-16T00:07:09;8.00;;;7.00;;
55350;SDS011;62194;49.480;10.986;2023-04-16T00:07:15;7.90;;;7.07;;
55350;SDS011;62194;49.480;10.986;2023-04-16T00:07:20;7.80;;;7.00;;
55350;SDS011;62194;49.480;10.986;2023-04-16T00:07:25;7.85;;;7.05;;
55350;SDS011;62194;49.480;10.986;2023-04-16T00:07:31;7.73;;;6.93;;
55350;SDS011;62194;49.480;10.986;2023-04-16T00:07:36;7.70;;;6.90;;
55350;SDS011;62194;49.480;10.986;2023-04-16T00:07:41;7.75;;;6.95;;
55350;SDS011;62194;49.480;10.986;2023-04-16T00:07:47;8.00;;;7.17;;
55350;SDS011;62194;49.480;10.986;2023-04-16T00:07:52;8.33;;;7.23;;
55350;SDS011;62194;49.480;10.986;2023-04-16T00:07:57;8.68;;;7.38;;
55350;SDS011;62194;49.480;10.986;2023-04-16T00:08:02;8.50;;;7.23;;
55350;SDS011;62194;49.480;10.986;2023-04-16T00:08:08;8.50;;;7.10;;
55350;SDS011;62194;49.480;10.986;2023-04-16T00:08:13;8.03;;;7.00;;
55350;SDS011;62194;49.480;10.986;2023-04-16T00:08:18;8.05;;;7.00;;
55350;SDS011;62194;49.480;10.986;2023-04-16T00:08:24;7.93;;;6.93;;
55350;SDS011;62194;49.480;10.986;2023-04-16T00:08:29;8.23;;;6.80;;
55350;SDS011;62194;49.480;10.986;2023-04-16T00:08:34;8.73;;;6.88;;
55350;SDS011;62194;49.480;10.986;2023-04-16T00:08:41;9.03;;;7.00;;
55350;SDS011;62194;49.480;10.986;2023-04-16T00:08:47;8.70;;;6.90;;
55350;SDS011;62194;49.480;10.986;2023-04-16T00:08:52;8.50;;;6.87;;
55350;SDS011;62194;49.480;10.986;2023-04-16T00:08:58;7.97;;;6.70;;
55350;SDS011;62194;49.480;10.986;2023-04-16T00:09:03;7.63;;;6.63;;
55350;SDS011;62194;49.480;10.986;2023-04-16T00:09:08;7.30;;;6.55;;
55350;SDS011;62194;49.480;10.986;2023-04-16T00:09:14;7.20;;;6.50;;
55350;SDS011;62194;49.480;10.986;2023-04-16T00:09:19;7.20;;;6.50;;
55350;SDS011;62194;49.480;10.986;2023-04-16T00:09:25;7.60;;;6.80;;
55350;SDS011;62194;49.480;10.986;2023-04-16T00:09:30;7.77;;;6.97;;
55350;SDS011;62194;49.480;10.986;2023-04-16T00:09:35;8.10;;;7.28;;
55350;SDS011;62194;49.480;10.986;2023-04-16T00:09:40;8.40;;;7.50;;
55350;SDS011;62194;49.480;10.986;2023-04-16T00:09:46;8.50;;;7.60;;
55350;SDS011;62194;49.480;10.986;2023-04-16T00:09:51;8.45;;;7.55;;
55350;SDS011;62194;49.480;10.986;2023-04-16T00:09:56;8.37;;;7.53;;
55350;SDS011;62194;49.480;10.986;2023-04-16T00:10:01;8.30;;;7.40;;
55350;SDS011;62194;49.480;10.986;2023-04-16T00:10:07;8.00;;;7.13;;
55350;SDS011;62194;49.480;10.986;2023-04-16T00:10:12;8.03;;;7.20;;
55350;SDS011;62194;49.480;10.986;2023-04-16T00:10:18;8.10;;;7.30;;
55350;SDS011;62194;49.480;10.986;2023-04-16T00:10:23;8.17;;;7.27;;
55350;SDS011;62194;49.480;10.986;2023-04-16T00:10:29;8.30;;;7.40;;
55350;SDS011;62194;49.480;10.986;2023-04-16T00:10:34;8.57;;;7.63;;
55350;SDS011;62194;49.480;10.986;2023-04-16T00:10:39;8.87;;;7.80;;
55350;SDS011;62194;49.480;10.986;2023-04-16T00:10:45;8.90;;;7.70;;
55350;SDS011;62194;49.480;10.986;2023-04-16T00:10:51;9.02;;;7.80;;
55350;SDS011;62194;49.480;10.986;2023-04-16T00:10:57;8.72;;;7.72;;
55350;SDS011;62194;49.480;10.986;2023-04-16T00:11:04;8.50;;;7.60;;
55350;SDS011;62194;49.480;10.986;2023-04-16T00:11:09;8.36;;;7.46;;
55350;SDS011;62194;49.480;10.986;2023-04-16T00:11:15;8.40;;;7.50;;
55350;SDS011;62194;49.480;10.986;2023-04-16T00:11:21;8.35;;;7.45;;
55350;SDS011;62194;49.480;10.986;2023-04-16T00:11:26;8.47;;;7.57;;
55350;SDS011;62194;49.480;10.986;2023-04-16T00:11:31;8.40;;;7.47;;
55350;SDS011;62194;49.480;10.986;2023-04-16T00:11:36;8.70;;;7.70;;
55350;SDS011;62194;49.480;10.986;2023-04-16T00:11:42;8.52;;;7.55;;
55350;SDS011;62194;49.480;10.986;2023-04-16T00:11:47;8.43;;;7.50;;
55350;SDS011;62194;49.480;10.986;2023-04-16T00:11:52;8.47;;;7.57;;
55350;SDS011;62194;49.480;10.986;2023-04-16T00:11:58;8.55;;;7.50;;
55350;SDS011;62194;49.480;10.986;2023-04-16T00:12:03;8.53;;;7.53;;
55350;SDS011;62194;49.480;10.986;2023-04-16T00:12:10;8.53;;;7.47;;
55350;SDS011;62194;49.480;10.986;2023-04-16T00:12:16;8.48;;;7.50;;
55350;SDS011;62194;49.480;10.986;2023-04-16T00:12:22;8.48;;;7.45;;
55350;SDS011;62194;49.480;10.986;2023-04-16T00:12:28;8.27;;;7.30;;
55350;SDS011;62194;49.480;10.986;2023-04-16T00:12:33;8.40;;;7.40;;
55350;SDS011;62194;49.480;10.986;2023-04-16T00:12:38;8.27;;;7.27;;
55350;SDS011;62194;49.480;10.986;2023-04-16T00:12:44;8.00;;;7.13;;
55350;SDS011;62194;49.480;10.986;2023-04-16T00:12:49;7.87;;;7.00;;
55350;SDS011;62194;49.480;10.986;2023-04-16T00:12:55;7.93;;;6.88;;
55350;SDS011;62194;49.480;10.986;2023-04-16T00:13:00;7.83;;;6.77;;
55350;SDS011;62194;49.480;10.986;2023-04-16T00:13:05;7.83;;;6.83;;
55350;SDS011;62194;49.480;10.986;2023-04-16T00:13:10;7.85;;;6.82;;
55350;SDS011;62194;49.480;10.986;2023-04-16T00:13:16;8.27;;;6.90;;
55350;SDS011;62194;49.480;10.986;2023-04-16T00:13:21;7.80;;;6.83;;
55350;SDS011;62194;49.480;10.986;2023-04-16T00:13:26;7.63;;;6.82;;
55350;SDS011;62194;49.480;10.986;2023-04-16T00:13:32;7.57;;;6.77;;
55350;SDS011;62194;49.480;10.986;2023-04-16T00:13:37;7.60;;;6.80;;
55350;SDS011;62194;49.480;10.986;2023-04-16T00:13:42;7.57;;;6.82;;
55350;SDS011;62194;49.480;10.986;2023-04-16T00:13:48;7.67;;;6.90;;
55350;SDS011;62194;49.480;10.986;2023-04-16T00:13:53;7.57;;;6.80;;
55350;SDS011;62194;49.480;10.986;2023-04-16T00:13:58;7.70;;;6.90;;
55350;SDS011;62194;49.480;10.986;2023-04-16T00:14:04;7.40;;;6.70;;
55350;SDS011;62194;49.480;10.986;2023-04-16T00:14:09;7.30;;;6.60;;
55350;SDS011;62194;49.480;10.986;2023-04-16T00:14:14;7.27;;;6.57;;
55350;SDS011;62194;49.480;10.986;2023-04-16T00:14:20;7.47;;;6.70;;
55350;SDS011;62194;49.480;10.986;2023-04-16T00:14:25;7.57;;;6.70;;
55350;SDS011;62194;49.480;10.986;2023-04-16T00:14:31;7.67;;;6.77;;
55350;SDS011;62194;49.480;10.986;2023-04-16T00:14:36;7.63;;;6.80;;
55350;SDS011;62194;49.480;10.986;2023-04-16T00:14:41;7.60;;;6.80;;
55350;SDS011;62194;49.480;10.986;2023-04-16T00:14:47;7.70;;;6.73;;
55350;SDS011;62194;49.480;10.986;2023-04-16T00:14:53;7.45;;;6.65;;
55350;SDS011;62194;49.480;10.986;2023-04-16T00:14:58;7.47;;;6.63;;
55350;SDS011;62194;49.480;10.986;2023-04-16T00:15:03;7.60;;;6.60;;
55350;SDS011;62194;49.480;10.986;2023-04-16T00:15:09;7.87;;;6.60;;
55350;SDS011;62194;49.480;10.986;2023-04-16T00:15:14;7.80;;;6.65;;
55350;SDS011;62194;49.480;10.986;2023-04-16T00:15:20;7.80;;;6.73;;
55350;SDS011;62194;49.480;10.986;2023-04-16T00:15:25;7.95;;;6.90;;
55350;SDS011;62194;49.480;10.986;2023-04-16T00:15:30;7.93;;;7.03;;
55350;SDS011;62194;49.480;10.986;2023-04-16T00:15:36;7.83;;;7.00;;
55350;SDS011;62194;49.480;10.986;2023-04-16T00:15:41;7.93;;;7.13;;
55350;SDS011;62194;49.480;10.986;2023-04-16T00:15:46;8.00;;;7.20;;
55350;SDS011;62194;49.480;10.986;2023-04-16T00:15:52;7.90;;;7.10;;
55350;SDS011;62194;49.480;10.986;2023-04-16T00:15:57;7.80;;;7.00;;
55350;SDS011;62194;49.480;10.986;2023-04-16T00:16:03;7.82;;;7.03;;
55350;SDS011;62194;49.480;10.986;2023-04-16T00:16:08;7.75;;;6.95;;
55350;SDS011;62194;49.480;10.986;2023-04-16T00:16:14;7.57;;;6.80;;
55350;SDS011;62194;49.480;10.986;2023-04-16T00:16:19;7.50;;;6.75;;
55350;SDS011;62194;49.480;10.986;2023-04-16T00:16:24;7.50;;;6.80;;
55350;SDS011;62194;49.480;10.986;2023-04-16T00:16:30;7.70;;;6.90;;
55350;SDS011;62194;49.480;10.986;2023-04-16T00:16:35;7.85;;;7.05;;
55350;SDS011;62194;49.480;10.986;2023-04-16T00:16:42;7.83;;;7.03;;
55350;SDS011;62194;49.480;10.986;2023-04-16T00:16:47;7.80;;;7.00;;
55350;SDS011;62194;49.480;10.986;2023-04-16T00:16:52;7.90;;;7.10;;
55350;SDS011;62194;49.480;10.986;2023-04-16T00:16:58;7.60;;;6.83;;
55350;SDS011;62194;49.480;10.986;2023-04-16T00:17:03;7.38;;;6.68;;
55350;SDS011;62194;49.480;10.986;2023-04-16T00:17:08;7.53;;;6.70;;
55350;SDS011;62194;49.480;10.986;2023-04-16T00:17:14;7.50;;;6.70;;
55350;SDS011;62194;49.480;10.986;2023-04-16T00:17:19;7.50;;;6.70;;
55350;SDS011;62194;49.480;10.986;2023-04-16T00:17:25;7.50;;;6.63;;
55350;SDS011;62194;49.480;10.986;2023-04-16T00:17:30;7.47;;;6.65;;
55350;SDS011;62194;49.480;10.986;2023-04-16T00:17:35;7.50;;;6.70;;
55350;SDS011;62194;49.480;10.986;2023-04-16T00:17:40;7.43;;;6.63;;
55350;SDS011;62194;49.480;10.986;2023-04-16T00:17:46;7.30;;;6.50;;
55350;SDS011;62194;49.480;10.986;2023-04-16T00:17:51;7.37;;;6.57;;
55350;SDS011;62194;49.480;10.986;2023-04-16T00:17:56;7.50;;;6.70;;
55350;SDS011;62194;49.480;10.986;2023-04-16T00:18:02;7.55;;;6.75;;
55350;SDS011;62194;49.480;10.986;2023-04-16T00:18:07;7.40;;;6.67;;
55350;SDS011;62194;49.480;10.986;2023-04-16T00:18:12;7.53;;;6.77;;
55350;SDS011;62194;49.480;10.986;2023-04-16T00:18:18;7.50;;;6.70;;
55350;SDS011;62194;49.480;10.986;2023-04-16T00:18:25;7.14;;;6.44;;
55350;SDS011;62194;49.480;10.986;2023-04-16T00:18:31;6.93;;;6.23;;
55350;SDS011;62194;49.480;10.986;2023-04-16T00:18:36;7.03;;;6.30;;
55350;SDS011;62194;49.480;10.986;2023-04-16T00:18:42;6.88;;;6.18;;
55350;SDS011;62194;49.480;10.986;2023-04-16T00:18:47;6.90;;;6.20;;
55350;SDS011;62194;49.480;10.986;2023-04-16T00:18:52;7.03;;;6.33;;
55350;SDS011;62194;49.480;10.986;2023-04-16T00:18:58;7.13;;;6.43;;
55350;SDS011;62194;49.480;10.986;2023-04-16T00:19:03;7.00;;;6.30;;
55350;SDS011;62194;49.480;10.986;2023-04-16T00:19:08;6.93;;;6.23;;
55350;SDS011;62194;49.480;10.986;2023-04-16T00:19:13;7.10;;;6.40;;
55350;SDS011;62194;49.480;10.986;2023-04-16T00:19:19;7.10;;;6.30;;
55350;SDS011;62194;49.480;10.986;2023-04-16T00:19:24;7.03;;;6.33;;
55350;SDS011;62194;49.480;10.986;2023-04-16T00:19:30;7.13;;;6.43;;
55350;SDS011;62194;49.480;10.986;2023-04-16T00:19:35;7.37;;;6.63;;
55350;SDS011;62194;49.480;10.986;2023-04-16T00:19:40;7.60;;;6.80;;
55350;SDS011;62194;49.480;10.986;2023-04-16T00:19:45;7.85;;;7.05;;
55350;SDS011;62194;49.480;10.986;2023-04-16T00:19:51;7.77;;;6.97;;
55350;SDS011;62194;49.480;10.986;2023-04-16T00:19:56;7.73;;;6.93;;
55350;SDS011;62194;49.480;10.986;2023-04-16T00:20:01;7.80;;;7.00;;
55350;SDS011;62194;49.480;10.986;2023-04-16T00:20:07;7.63;;;6.82;;
55350;SDS011;62194;49.480;10.986;2023-04-16T00:20:13;7.33;;;6.53;;
55350;SDS011;62194;49.480;10.986;2023-04-16T00:20:18;7.07;;;6.30;;
55350;SDS011;62194;49.480;10.986;2023-04-16T00:20:24;7.22;;;6.45;;
55350;SDS011;62194;49.480;10.986;2023-04-16T00:20:29;7.05;;;6.35;;
55350;SDS011;62194;49.480;10.986;2023-04-16T00:20:34;7.13;;;6.43;;
55350;SDS011;62194;49.480;10.986;2023-04-16T00:20:40;7.40;;;6.50;;
55350;SDS011;62194;49.480;10.986;2023-04-16T00:20:46;7.67;;;6.60;;
55350;SDS011;62194;49.480;10.986;2023-04-16T00:20:52;7.50;;;6.66;;
55350;SDS011;62194;49.480;10.986;2023-04-16T00:20:58;7.50;;;6.54;;
55350;SDS011;62194;49.480;10.986;2023-04-16T00:21:03;7.70;;;6.67;;
55350;SDS011;62194;49.480;10.986;2023-04-16T00:21:09;7.50;;;6.70;;
55350;SDS011;62194;49.480;10.986;2023-04-16T00:21:14;7.28;;;6.50;;
55350;SDS011;62194;49.480;10.986;2023-04-16T00:21:19;7.40;;;6.47;;
55350;SDS011;62194;49.480;10.986;2023-04-16T00:21:25;7.50;;;6.63;;
55350;SDS011;62194;49.480;10.986;2023-04-16T00:21:30;7.53;;;6.65;;
55350;SDS011;62194;49.480;10.986;2023-04-16T00:21:36;7.57;;;6.53;;
55350;SDS011;62194;49.480;10.986;2023-04-16T00:21:41;7.27;;;6.40;;
55350;SDS011;62194;49.480;10.986;2023-04-16T00:21:46;7.22;;;6.50;;
55350;SDS011;62194;49.480;10.986;2023-04-16T00:21:52;7.20;;;6.50;;
55350;SDS011;62194;49.480;10.986;2023-04-16T00:21:57;7.32;;;6.63;;
55350;SDS011;62194;49.480;10.986;2023-04-16T00:22:02;7.27;;;6.57;;
55350;SDS011;62194;49.480;10.986;2023-04-16T00:22:08;7.67;;;6.83;;
55350;SDS011;62194;49.480;10.986;2023-04-16T00:22:13;8.02;;;6.95;;
55350;SDS011;62194;49.480;10.986;2023-04-16T00:22:18;8.27;;;7.00;;
55350;SDS011;62194;49.480;10.986;2023-04-16T00:22:23;8.17;;;6.97;;
55350;SDS011;62194;49.480;10.986;2023-04-16T00:22:29;8.00;;;6.80;;
55350;SDS011;62194;49.480;10.986;2023-04-16T00:22:34;8.05;;;6.82;;
55350;SDS011;62194;49.480;10.986;2023-04-16T00:22:39;8.00;;;6.90;;
55350;SDS011;62194;49.480;10.986;2023-04-16T00:22:45;7.73;;;6.83;;
55350;SDS011;62194;49.480;10.986;2023-04-16T00:22:50;7.72;;;6.72;;
55350;SDS011;62194;49.480;10.986;2023-04-16T00:22:55;7.60;;;6.67;;
55350;SDS011;62194;49.480;10.986;2023-04-16T00:23:01;7.75;;;6.80;;
55350;SDS011;62194;49.480;10.986;2023-04-16T00:23:06;7.37;;;6.63;;
55350;SDS011;62194;49.480;10.986;2023-04-16T00:23:11;7.30;;;6.60;;
55350;SDS011;62194;49.480;10.986;2023-04-16T00:23:17;7.27;;;6.57;;
55350;SDS011;62194;49.480;10.986;2023-04-16T00:23:22;7.40;;;6.63;;
55350;SDS011;62194;49.480;10.986;2023-04-16T00:23:29;7.46;;;6.72;;
55350;SDS011;62194;49.480;10.986;2023-04-16T00:23:34;8.10;;;6.87;;
55350;SDS011;62194;49.480;10.986;2023-04-16T00:23:39;7.93;;;6.87;;
55350;SDS011;62194;49.480;10.986;2023-04-16T00:23:45;8.03;;;6.90;;
55350;SDS011;62194;49.480;10.986;2023-04-16T00:23:50;8.23;;;7.07;;
55350;SDS011;62194;49.480;10.986;2023-04-16T00:23:55;8.43;;;7.10;;
55350;SDS011;62194;49.480;10.986;2023-04-16T00:24:01;8.53;;;7.00;;
55350;SDS011;62194;49.480;10.986;2023-04-16T00:24:06;7.75;;;6.95;;
55350;SDS011;62194;49.480;10.986;2023-04-16T00:24:11;7.87;;;7.03;;
55350;SDS011;62194;49.480;10.986;2023-04-16T00:24:16;7.90;;;7.10;;
55350;SDS011;62194;49.480;10.986;2023-04-16T00:24:22;7.72;;;6.93;;
55350;SDS011;62194;49.480;10.986;2023-04-16T00:24:27;7.70;;;6.90;;
55350;SDS011;62194;49.480;10.986;2023-04-16T00:24:32;7.50;;;6.80;;
55350;SDS011;62194;49.480;10.986;2023-04-16T00:24:37;7.67;;;6.90;;
55350;SDS011;62194;49.480;10.986;2023-04-16T00:24:43;7.55;;;6.85;;
55350;SDS011;62194;49.480;10.986;2023-04-16T00:24:48;7.60;;;6.90;;
55350;SDS011;62194;49.480;10.986;2023-04-16T00:24:53;7.73;;;7.03;;
55350;SDS011;62194;49.480;10.986;2023-04-16T00:24:59;7.72;;;7.00;;
55350;SDS011;62194;49.480;10.986;2023-04-16T00:25:04;7.80;;;7.00;;
55350;SDS011;62194;49.480;10.986;2023-04-16T00:25:09;7.70;;;6.90;;
55350;SDS011;62194;49.480;10.986;2023-04-16T00:25:15;7.82;;;6.90;;
55350;SDS011;62194;49.480;10.986;2023-04-16T00:25:20;7.67;;;6.80;;
55350;SDS011;62194;49.480;10.986;2023-04-16T00:25:25;8.05;;;6.63;;
55350;SDS011;62194;49.480;10.986;2023-04-16T00:25:31;7.47;;;6.50;;
55350;SDS011;62194;49.480;10.986;2023-04-16T00:25:36;7.10;;;6.33;;
55350;SDS011;62194;49.480;10.986;2023-04-16T00:25:41;7.50;;;6.30;;
55350;SDS011;62194;49.480;10.986;2023-04-16T00:25:47;7.68;;;6.30;;
55350;SDS011;62194;49.480;10.986;2023-04-16T00:25:52;7.63;;;6.50;;
55350;SDS011;62194;49.480;10.986;2023-04-16T00:25:58;7.55;;;6.60;;
55350;SDS011;62194;49.480;10.986;2023-04-16T00:26:03;7.80;;;6.78;;
55350;SDS011;62194;49.480;10.986;2023-04-16T00:26:09;7.97;;;6.73;;
55350;SDS011;62194;49.480;10.986;2023-04-16T00:26:14;7.50;;;6.63;;
55350;SDS011;62194;49.480;10.986;2023-04-16T00:26:20;7.50;;;6.65;;
55350;SDS011;62194;49.480;10.986;2023-04-16T00:26:25;7.40;;;6.60;;
55350;SDS011;62194;49.480;10.986;2023-04-16T00:26:30;7.40;;;6.57;;
55350;SDS011;62194;49.480;10.986;2023-04-16T00:26:35;7.47;;;6.72;;
55350;SDS011;62194;49.480;10.986;2023-04-16T00:26:41;7.40;;;6.70;;
55350;SDS011;62194;49.480;10.986;2023-04-16T00:26:48;7.70;;;6.90;;
55350;SDS011;62194;49.480;10.986;2023-04-16T00:26:53;7.57;;;6.80;;
55350;SDS011;62194;49.480;10.986;2023-04-16T00:26:58;7.35;;;6.65;;
55350;SDS011;62194;49.480;10.986;2023-04-16T00:27:04;7.40;;;6.67;;
55350;SDS011;62194;49.480;10.986;2023-04-16T00:27:10;7.33;;;6.60;;
55350;SDS011;62194;49.480;10.986;2023-04-16T00:27:15;7.32;;;6.63;;
55350;SDS011;62194;49.480;10.986;2023-04-16T00:27:21;7.53;;;6.77;;
55350;SDS011;62194;49.480;10.986;2023-04-16T00:27:26;7.63;;;6.83;;
55350;SDS011;62194;49.480;10.986;2023-04-16T00:27:31;7.80;;;7.00;;
55350;SDS011;62194;49.480;10.986;2023-04-16T00:27:36;7.93;;;7.13;;
55350;SDS011;62194;49.480;10.986;2023-04-16T00:27:42;7.80;;;7.00;;
55350;SDS011;62194;49.480;10.986;2023-04-16T00:27:47;7.83;;;7.03;;
55350;SDS011;62194;49.480;10.986;2023-04-16T00:27:52;7.85;;;7.05;;
55350;SDS011;62194;49.480;10.986;2023-04-16T00:27:58;7.80;;;7.00;;
55350;SDS011;62194;49.480;10.986;2023-04-16T00:28:03;7.93;;;7.03;;
55350;SDS011;62194;49.480;10.986;2023-04-16T00:28:09;7.90;;;7.10;;
55350;SDS011;62194;49.480;10.986;2023-04-16T00:28:14;7.68;;;6.88;;
55350;SDS011;62194;49.480;10.986;2023-04-16T00:28:20;7.57;;;6.77;;
55350;SDS011;62194;49.480;10.986;2023-04-16T00:28:25;7.57;;;6.77;;
55350;SDS011;62194;49.480;10.986;2023-04-16T00:28:31;7.53;;;6.73;;
55350;SDS011;62194;49.480;10.986;2023-04-16T00:28:36;7.50;;;6.70;;
55350;SDS011;62194;49.480;10.986;2023-04-16T00:28:42;7.97;;;6.90;;
55350;SDS011;62194;49.480;10.986;2023-04-16T00:28:47;7.90;;;6.90;;
55350;SDS011;62194;49.480;10.986;2023-04-16T00:28:52;7.80;;;6.70;;
55350;SDS011;62194;49.480;10.986;2023-04-16T00:28:58;7.80;;;6.50;;
55350;SDS011;62194;49.480;10.986;2023-04-16T00:29:03;7.30;;;6.43;;
55350;SDS011;62194;49.480;10.986;2023-04-16T00:29:08;7.33;;;6.20;;
55350;SDS011;62194;49.480;10.986;2023-04-16T00:29:14;7.10;;;6.13;;
55350;SDS011;62194;49.480;10.986;2023-04-16T00:29:19;7.35;;;6.20;;
55350;SDS011;62194;49.480;10.986;2023-04-16T00:29:24;7.20;;;6.20;;
55350;SDS011;62194;49.480;10.986;2023-04-16T00:29:32;7.03;;;6.20;;
55350;SDS011;62194;49.480;10.986;2023-04-16T00:29:38;6.90;;;6.20;;
55350;SDS011;62194;49.480;10.986;2023-04-16T00:29:44;6.90;;;6.20;;
55350;SDS011;62194;49.480;10.986;2023-04-16T00:29:49;6.90;;;6.20;;
55350;SDS011;62194;49.480;10.986;2023-04-16T00:29:54;6.97;;;6.27;;
55350;SDS011;62194;49.480;10.986;2023-04-16T00:30:00;7.00;;;6.30;;
55350;SDS011;62194;49.480;10.986;2023-04-16T00:30:05;7.05;;;6.35;;
55350;SDS011;62194;49.480;10.986;2023-04-16T00:30:11;7.00;;;6.30;;
55350;SDS011;62194;49.480;10.986;2023-04-16T00:30:17;7.18;;;6.47;;
55350;SDS011;62194;49.480;10.986;2023-04-16T00:30:22;7.37;;;6.63;;
55350;SDS011;62194;49.480;10.986;2023-04-16T00:30:28;7.20;;;6.50;;
55350;SDS011;62194;49.480;10.986;2023-04-16T00:30:33;7.23;;;6.50;;
55350;SDS011;62194;49.480;10.986;2023-04-16T00:30:39;7.40;;;6.50;;
55350;SDS011;62194;49.480;10.986;2023-04-16T00:30:44;7.77;;;6.43;;
55350;SDS011;62194;49.480;10.986;2023-04-16T00:30:50;7.72;;;6.32;;
55350;SDS011;62194;49.480;10.986;2023-04-16T00:30:55;7.80;;;6.40;;
55350;SDS011;62194;49.480;10.986;2023-04-16T00:31:00;8.10;;;6.67;;
55350;SDS011;62194;49.480;10.986;2023-04-16T00:31:06;8.05;;;6.78;;
55350;SDS011;62194;49.480;10.986;2023-04-16T00:31:11;7.70;;;6.73;;
55350;SDS011;62194;49.480;10.986;2023-04-16T00:31:16;7.70;;;6.70;;
55350;SDS011;62194;49.480;10.986;2023-04-16T00:31:25;7.63;;;6.78;;
55350;SDS011;62194;49.480;10.986;2023-04-16T00:31:35;7.72;;;6.69;;
55350;SDS011;62194;49.480;10.986;2023-04-16T00:31:40;7.85;;;6.70;;
55350;SDS011;62194;49.480;10.986;2023-04-16T00:31:45;7.87;;;6.83;;
55350;SDS011;62194;49.480;10.986;2023-04-16T00:31:51;7.85;;;6.68;;
55350;SDS011;62194;49.480;10.986;2023-04-16T00:31:56;7.70;;;6.63;;
55350;SDS011;62194;49.480;10.986;2023-04-16T00:32:01;7.70;;;6.63;;
55350;SDS011;62194;49.480;10.986;2023-04-16T00:32:07;7.50;;;6.70;;
55350;SDS011;62194;49.480;10.986;2023-04-16T00:32:12;7.40;;;6.60;;
55350;SDS011;62194;49.480;10.986;2023-04-16T00:32:17;7.37;;;6.60;;
55350;SDS011;62194;49.480;10.986;2023-04-16T00:32:23;7.50;;;6.70;;
55350;SDS011;62194;49.480;10.986;2023-04-16T00:32:28;7.53;;;6.73;;